Accueil
METAR-TAF:

METAR-TAF

Aéroports :

Iakoutsk, Russie

Aéroport d'Iakoutsk

latitude: 62-01N, longitude: 129-43E, altitude: 103 m

Observation

Le bulletin a été fait il y a 41 minutes, à 23:30 UTC
Vent 2 kt de nord/nord-ouest
Température -39°C
Humidité 65%
Pression 1017 hPa
Visibilité: 0450 m
brouillard

METAR: UEEE 222330Z 33001MPS 0650 0450NE R23L/0650N FG NSC M39/M43 Q1017 R23L/490150 NOSIG RMK QFE754

Heure: 09:11 (00:11 UTC)

Prévision

Le bulletin a été fait il y a 1 heure et 6 minutes, à 23:05 UTC
Prévision valable du 23 à 00 UTC au 24 à 06 UTC
Vent 2 kt de direction variable
Visibilité: 0300 m
à une hauteur de 300 ft
brouillard
Temporairement
du 23 à 00 UTC au 23 à 12 UTC
Visibilité: 1500 m
Nuages épars à une hauteur de 2000 ft
Nuages fragmentés à une hauteur de 10000 ft
brume

TAF: UEEE 222305Z 2300/2406 VRB01MPS 0300 FG VV003 TEMPO 2300/2312 1500 BR SCT020 BKN100

Observations et prévisions météorologiques de plus de 4000 aéroports (messages METAR et TAF).

Les stations disponibles sont représentées par des disques jaunes et rouges sur la carte.

Passer la souris dessus pour voir le nom de la station.

Cliquer dessus pour voir les observations et prévisions météorologiques.

Pour changer de carte: cliquez sur les boutons verts avec une croix noire pour zoomer, sur le bouton vert avec un tiret pour effectuer un zoom arrière, ou sur les flèches vertes pour les cartes adjacentes.


METAR-TAF: